sensor_id;sensor_type;location;lat;lon;timestamp;P1;durP1;ratioP1;P2;durP2;ratioP2
27145;SDS011;17980;51.744;7.190;2022-12-07T00:01:49;22.67;;;18.60;;
27145;SDS011;17980;51.744;7.190;2022-12-07T00:04:20;19.93;;;17.83;;
27145;SDS011;17980;51.744;7.190;2022-12-07T00:06:51;22.20;;;18.03;;
27145;SDS011;17980;51.744;7.190;2022-12-07T00:09:20;21.60;;;17.80;;
27145;SDS011;17980;51.744;7.190;2022-12-07T00:11:58;19.43;;;17.13;;
27145;SDS011;17980;51.744;7.190;2022-12-07T00:14:43;21.50;;;17.63;;
27145;SDS011;17980;51.744;7.190;2022-12-07T00:17:15;21.03;;;18.77;;
27145;SDS011;17980;51.744;7.190;2022-12-07T00:22:24;20.97;;;15.90;;
27145;SDS011;17980;51.744;7.190;2022-12-07T00:27:31;19.20;;;15.30;;
27145;SDS011;17980;51.744;7.190;2022-12-07T00:32:35;19.07;;;16.60;;
27145;SDS011;17980;51.744;7.190;2022-12-07T00:35:05;23.87;;;18.23;;
27145;SDS011;17980;51.744;7.190;2022-12-07T00:37:36;20.13;;;16.37;;
27145;SDS011;17980;51.744;7.190;2022-12-07T00:40:05;22.27;;;17.10;;
27145;SDS011;17980;51.744;7.190;2022-12-07T00:42:43;19.37;;;16.57;;
27145;SDS011;17980;51.744;7.190;2022-12-07T00:45:11;19.17;;;16.53;;
27145;SDS011;17980;51.744;7.190;2022-12-07T00:47:39;21.37;;;15.87;;
27145;SDS011;17980;51.744;7.190;2022-12-07T00:50:07;21.87;;;16.37;;
27145;SDS011;17980;51.744;7.190;2022-12-07T00:52:44;22.20;;;16.77;;
27145;SDS011;17980;51.744;7.190;2022-12-07T00:55:12;21.43;;;18.67;;
27145;SDS011;17980;51.744;7.190;2022-12-07T00:57:39;21.67;;;17.97;;
27145;SDS011;17980;51.744;7.190;2022-12-07T01:00:07;21.47;;;18.33;;
27145;SDS011;17980;51.744;7.190;2022-12-07T01:02:45;22.50;;;18.53;;
27145;SDS011;17980;51.744;7.190;2022-12-07T01:05:12;23.27;;;19.20;;
27145;SDS011;17980;51.744;7.190;2022-12-07T01:07:39;20.77;;;17.27;;
27145;SDS011;17980;51.744;7.190;2022-12-07T01:10:07;26.70;;;18.07;;
27145;SDS011;17980;51.744;7.190;2022-12-07T01:12:35;23.37;;;19.23;;
27145;SDS011;17980;51.744;7.190;2022-12-07T01:15:02;21.83;;;18.63;;
27145;SDS011;17980;51.744;7.190;2022-12-07T01:17:40;27.47;;;20.57;;
27145;SDS011;17980;51.744;7.190;2022-12-07T01:20:08;24.33;;;19.73;;
27145;SDS011;17980;51.744;7.190;2022-12-07T01:22:45;27.07;;;19.57;;
27145;SDS011;17980;51.744;7.190;2022-12-07T01:25:12;24.03;;;20.63;;
27145;SDS011;17980;51.744;7.190;2022-12-07T01:27:49;23.87;;;19.23;;
27145;SDS011;17980;51.744;7.190;2022-12-07T01:30:17;25.53;;;19.70;;
27145;SDS011;17980;51.744;7.190;2022-12-07T01:32:44;25.83;;;19.13;;
27145;SDS011;17980;51.744;7.190;2022-12-07T01:35:11;27.77;;;20.97;;
27145;SDS011;17980;51.744;7.190;2022-12-07T01:37:38;23.20;;;19.90;;
27145;SDS011;17980;51.744;7.190;2022-12-07T01:40:07;24.03;;;19.87;;
27145;SDS011;17980;51.744;7.190;2022-12-07T01:42:36;25.67;;;20.17;;
27145;SDS011;17980;51.744;7.190;2022-12-07T01:48:13;22.23;;;19.23;;
27145;SDS011;17980;51.744;7.190;2022-12-07T01:50:43;22.03;;;19.63;;
27145;SDS011;17980;51.744;7.190;2022-12-07T01:53:20;23.70;;;18.73;;
27145;SDS011;17980;51.744;7.190;2022-12-07T01:55:49;24.37;;;18.10;;
27145;SDS011;17980;51.744;7.190;2022-12-07T01:58:27;19.80;;;17.67;;
27145;SDS011;17980;51.744;7.190;2022-12-07T02:00:55;32.17;;;28.67;;
27145;SDS011;17980;51.744;7.190;2022-12-07T02:03:32;23.70;;;20.30;;
27145;SDS011;17980;51.744;7.190;2022-12-07T02:06:03;23.10;;;17.73;;
27145;SDS011;17980;51.744;7.190;2022-12-07T02:08:32;31.23;;;24.20;;
27145;SDS011;17980;51.744;7.190;2022-12-07T02:11:09;28.97;;;22.00;;
27145;SDS011;17980;51.744;7.190;2022-12-07T02:13:37;48.87;;;38.70;;
27145;SDS011;17980;51.744;7.190;2022-12-07T02:16:12;28.73;;;24.10;;
27145;SDS011;17980;51.744;7.190;2022-12-07T02:18:51;26.93;;;22.67;;
27145;SDS011;17980;51.744;7.190;2022-12-07T02:21:32;29.57;;;21.93;;
27145;SDS011;17980;51.744;7.190;2022-12-07T02:24:14;36.53;;;30.60;;
27145;SDS011;17980;51.744;7.190;2022-12-07T02:30:06;32.90;;;24.40;;
27145;SDS011;17980;51.744;7.190;2022-12-07T02:32:40;28.83;;;22.17;;
27145;SDS011;17980;51.744;7.190;2022-12-07T02:35:19;34.90;;;25.50;;
27145;SDS011;17980;51.744;7.190;2022-12-07T02:37:51;46.77;;;38.47;;
27145;SDS011;17980;51.744;7.190;2022-12-07T02:40:35;53.63;;;44.87;;
27145;SDS011;17980;51.744;7.190;2022-12-07T02:43:06;31.50;;;25.03;;
27145;SDS011;17980;51.744;7.190;2022-12-07T02:45:37;32.77;;;25.13;;
27145;SDS011;17980;51.744;7.190;2022-12-07T02:48:16;27.43;;;22.50;;
27145;SDS011;17980;51.744;7.190;2022-12-07T02:50:45;26.37;;;20.93;;
27145;SDS011;17980;51.744;7.190;2022-12-07T02:53:29;28.30;;;21.93;;
27145;SDS011;17980;51.744;7.190;2022-12-07T02:55:58;29.40;;;23.37;;
27145;SDS011;17980;51.744;7.190;2022-12-07T02:58:30;31.80;;;22.30;;
27145;SDS011;17980;51.744;7.190;2022-12-07T03:01:11;30.03;;;23.03;;
27145;SDS011;17980;51.744;7.190;2022-12-07T03:03:48;31.87;;;22.87;;
27145;SDS011;17980;51.744;7.190;2022-12-07T03:06:20;33.90;;;24.90;;
27145;SDS011;17980;51.744;7.190;2022-12-07T03:08:52;27.20;;;22.77;;
27145;SDS011;17980;51.744;7.190;2022-12-07T03:11:38;31.90;;;25.20;;
27145;SDS011;17980;51.744;7.190;2022-12-07T03:14:08;29.40;;;23.47;;
27145;SDS011;17980;51.744;7.190;2022-12-07T03:16:39;28.40;;;23.27;;
27145;SDS011;17980;51.744;7.190;2022-12-07T03:19:09;30.40;;;23.70;;
27145;SDS011;17980;51.744;7.190;2022-12-07T03:21:40;42.23;;;33.53;;
27145;SDS011;17980;51.744;7.190;2022-12-07T03:24:19;37.00;;;29.47;;
27145;SDS011;17980;51.744;7.190;2022-12-07T03:26:49;51.57;;;41.10;;
27145;SDS011;17980;51.744;7.190;2022-12-07T03:29:20;35.17;;;25.70;;
27145;SDS011;17980;51.744;7.190;2022-12-07T03:31:52;32.20;;;24.60;;
27145;SDS011;17980;51.744;7.190;2022-12-07T03:34:31;41.47;;;28.63;;
27145;SDS011;17980;51.744;7.190;2022-12-07T03:37:00;33.13;;;25.77;;
27145;SDS011;17980;51.744;7.190;2022-12-07T03:39:33;32.87;;;27.47;;
27145;SDS011;17980;51.744;7.190;2022-12-07T03:42:02;33.20;;;25.70;;
27145;SDS011;17980;51.744;7.190;2022-12-07T03:44:33;34.37;;;26.37;;
27145;SDS011;17980;51.744;7.190;2022-12-07T03:47:11;35.43;;;27.27;;
27145;SDS011;17980;51.744;7.190;2022-12-07T03:49:43;33.67;;;24.13;;
27145;SDS011;17980;51.744;7.190;2022-12-07T03:52:16;31.77;;;22.90;;
27145;SDS011;17980;51.744;7.190;2022-12-07T03:54:54;39.07;;;24.77;;
27145;SDS011;17980;51.744;7.190;2022-12-07T03:57:23;30.63;;;24.00;;
27145;SDS011;17980;51.744;7.190;2022-12-07T03:59:52;30.27;;;22.17;;
27145;SDS011;17980;51.744;7.190;2022-12-07T04:02:21;34.17;;;27.60;;
27145;SDS011;17980;51.744;7.190;2022-12-07T04:04:49;32.23;;;23.53;;
27145;SDS011;17980;51.744;7.190;2022-12-07T04:07:26;31.07;;;20.97;;
27145;SDS011;17980;51.744;7.190;2022-12-07T04:09:53;34.43;;;22.50;;
27145;SDS011;17980;51.744;7.190;2022-12-07T04:12:21;31.43;;;22.17;;
27145;SDS011;17980;51.744;7.190;2022-12-07T04:14:57;31.30;;;20.60;;
27145;SDS011;17980;51.744;7.190;2022-12-07T04:17:25;30.47;;;21.03;;
27145;SDS011;17980;51.744;7.190;2022-12-07T04:19:52;33.07;;;23.50;;
27145;SDS011;17980;51.744;7.190;2022-12-07T04:22:19;26.10;;;20.93;;
27145;SDS011;17980;51.744;7.190;2022-12-07T04:24:56;29.20;;;20.03;;
27145;SDS011;17980;51.744;7.190;2022-12-07T04:27:23;26.30;;;20.77;;
27145;SDS011;17980;51.744;7.190;2022-12-07T04:29:50;26.03;;;20.73;;
27145;SDS011;17980;51.744;7.190;2022-12-07T04:32:18;24.67;;;19.77;;
27145;SDS011;17980;51.744;7.190;2022-12-07T04:34:45;23.17;;;19.50;;
27145;SDS011;17980;51.744;7.190;2022-12-07T04:37:12;26.27;;;19.30;;
27145;SDS011;17980;51.744;7.190;2022-12-07T04:39:39;25.37;;;18.33;;
27145;SDS011;17980;51.744;7.190;2022-12-07T04:42:08;26.30;;;19.70;;
27145;SDS011;17980;51.744;7.190;2022-12-07T04:44:44;25.07;;;21.50;;
27145;SDS011;17980;51.744;7.190;2022-12-07T04:47:12;29.30;;;25.23;;
27145;SDS011;17980;51.744;7.190;2022-12-07T04:49:39;27.07;;;22.47;;
27145;SDS011;17980;51.744;7.190;2022-12-07T04:52:06;30.03;;;25.97;;
27145;SDS011;17980;51.744;7.190;2022-12-07T04:54:43;34.80;;;26.40;;
27145;SDS011;17980;51.744;7.190;2022-12-07T04:57:10;36.97;;;29.43;;
27145;SDS011;17980;51.744;7.190;2022-12-07T04:59:37;31.00;;;23.67;;
27145;SDS011;17980;51.744;7.190;2022-12-07T05:02:04;30.17;;;23.60;;
27145;SDS011;17980;51.744;7.190;2022-12-07T05:04:41;28.43;;;21.53;;
27145;SDS011;17980;51.744;7.190;2022-12-07T05:07:08;27.27;;;21.97;;
27145;SDS011;17980;51.744;7.190;2022-12-07T05:09:36;22.80;;;17.47;;
27145;SDS011;17980;51.744;7.190;2022-12-07T05:12:03;18.97;;;16.00;;
27145;SDS011;17980;51.744;7.190;2022-12-07T05:14:30;27.87;;;18.27;;
27145;SDS011;17980;51.744;7.190;2022-12-07T05:17:07;22.50;;;19.20;;
27145;SDS011;17980;51.744;7.190;2022-12-07T05:19:34;28.57;;;24.40;;
27145;SDS011;17980;51.744;7.190;2022-12-07T05:22:02;25.67;;;17.30;;
27145;SDS011;17980;51.744;7.190;2022-12-07T05:24:38;21.47;;;14.60;;
27145;SDS011;17980;51.744;7.190;2022-12-07T05:27:06;28.67;;;21.67;;
27145;SDS011;17980;51.744;7.190;2022-12-07T05:29:33;26.87;;;20.20;;
27145;SDS011;17980;51.744;7.190;2022-12-07T05:32:00;33.00;;;28.17;;
27145;SDS011;17980;51.744;7.190;2022-12-07T05:34:28;27.43;;;21.83;;
27145;SDS011;17980;51.744;7.190;2022-12-07T05:36:55;34.00;;;26.13;;
27145;SDS011;17980;51.744;7.190;2022-12-07T05:39:32;26.53;;;21.90;;
27145;SDS011;17980;51.744;7.190;2022-12-07T05:41:59;24.10;;;20.70;;
27145;SDS011;17980;51.744;7.190;2022-12-07T05:44:36;25.00;;;15.80;;
27145;SDS011;17980;51.744;7.190;2022-12-07T05:47:03;22.90;;;14.90;;
27145;SDS011;17980;51.744;7.190;2022-12-07T05:49:40;18.43;;;15.23;;
27145;SDS011;17980;51.744;7.190;2022-12-07T05:52:07;19.97;;;14.93;;
27145;SDS011;17980;51.744;7.190;2022-12-07T05:54:47;22.13;;;14.20;;
27145;SDS011;17980;51.744;7.190;2022-12-07T05:57:14;18.33;;;14.17;;
27145;SDS011;17980;51.744;7.190;2022-12-07T05:59:41;19.20;;;12.93;;
27145;SDS011;17980;51.744;7.190;2022-12-07T06:02:09;19.57;;;12.30;;
27145;SDS011;17980;51.744;7.190;2022-12-07T06:04:46;17.87;;;13.23;;
27145;SDS011;17980;51.744;7.190;2022-12-07T06:07:14;22.03;;;12.63;;
27145;SDS011;17980;51.744;7.190;2022-12-07T06:09:42;18.60;;;13.47;;
27145;SDS011;17980;51.744;7.190;2022-12-07T06:12:10;21.67;;;13.57;;
27145;SDS011;17980;51.744;7.190;2022-12-07T06:14:47;17.40;;;12.90;;
27145;SDS011;17980;51.744;7.190;2022-12-07T06:19:50;18.47;;;12.83;;
27145;SDS011;17980;51.744;7.190;2022-12-07T06:22:17;19.67;;;14.07;;
27145;SDS011;17980;51.744;7.190;2022-12-07T06:24:54;19.10;;;13.17;;
27145;SDS011;17980;51.744;7.190;2022-12-07T06:27:22;15.53;;;13.70;;
27145;SDS011;17980;51.744;7.190;2022-12-07T06:29:49;15.47;;;12.90;;
27145;SDS011;17980;51.744;7.190;2022-12-07T06:32:16;21.57;;;12.43;;
27145;SDS011;17980;51.744;7.190;2022-12-07T06:34:53;17.13;;;12.03;;
27145;SDS011;17980;51.744;7.190;2022-12-07T06:37:20;17.00;;;12.53;;
27145;SDS011;17980;51.744;7.190;2022-12-07T06:39:47;16.87;;;12.27;;
27145;SDS011;17980;51.744;7.190;2022-12-07T06:42:14;18.27;;;11.90;;
27145;SDS011;17980;51.744;7.190;2022-12-07T06:44:51;18.07;;;11.27;;
27145;SDS011;17980;51.744;7.190;2022-12-07T06:47:18;17.20;;;12.37;;
27145;SDS011;17980;51.744;7.190;2022-12-07T06:49:46;19.67;;;11.73;;
27145;SDS011;17980;51.744;7.190;2022-12-07T06:52:13;14.93;;;10.70;;
27145;SDS011;17980;51.744;7.190;2022-12-07T06:54:50;15.60;;;10.80;;
27145;SDS011;17980;51.744;7.190;2022-12-07T06:57:17;17.07;;;11.33;;
27145;SDS011;17980;51.744;7.190;2022-12-07T06:59:45;15.10;;;11.00;;
27145;SDS011;17980;51.744;7.190;2022-12-07T07:02:13;15.40;;;12.00;;
27145;SDS011;17980;51.744;7.190;2022-12-07T07:04:40;17.40;;;12.10;;
27145;SDS011;17980;51.744;7.190;2022-12-07T07:07:07;19.03;;;12.17;;
27145;SDS011;17980;51.744;7.190;2022-12-07T07:09:34;16.13;;;12.40;;
27145;SDS011;17980;51.744;7.190;2022-12-07T07:12:02;16.57;;;12.63;;
27145;SDS011;17980;51.744;7.190;2022-12-07T07:14:39;20.10;;;13.37;;
27145;SDS011;17980;51.744;7.190;2022-12-07T07:17:07;14.80;;;12.43;;
27145;SDS011;17980;51.744;7.190;2022-12-07T07:22:10;18.40;;;13.87;;
27145;SDS011;17980;51.744;7.190;2022-12-07T07:24:37;19.57;;;14.03;;
27145;SDS011;17980;51.744;7.190;2022-12-07T07:27:14;22.17;;;13.83;;
27145;SDS011;17980;51.744;7.190;2022-12-07T07:29:42;22.93;;;15.70;;
27145;SDS011;17980;51.744;7.190;2022-12-07T07:32:11;20.70;;;15.13;;
27145;SDS011;17980;51.744;7.190;2022-12-07T07:34:38;26.30;;;19.10;;
27145;SDS011;17980;51.744;7.190;2022-12-07T07:37:22;20.63;;;14.67;;
27145;SDS011;17980;51.744;7.190;2022-12-07T07:39:49;24.67;;;14.60;;
27145;SDS011;17980;51.744;7.190;2022-12-07T07:42:16;22.00;;;13.90;;
27145;SDS011;17980;51.744;7.190;2022-12-07T07:44:53;19.57;;;14.70;;
27145;SDS011;17980;51.744;7.190;2022-12-07T07:47:21;20.17;;;16.27;;
27145;SDS011;17980;51.744;7.190;2022-12-07T07:49:48;22.17;;;14.50;;
27145;SDS011;17980;51.744;7.190;2022-12-07T07:52:25;21.27;;;14.33;;
27145;SDS011;17980;51.744;7.190;2022-12-07T07:54:52;21.97;;;16.17;;
27145;SDS011;17980;51.744;7.190;2022-12-07T07:57:29;22.03;;;14.53;;
27145;SDS011;17980;51.744;7.190;2022-12-07T07:59:56;18.20;;;13.93;;
27145;SDS011;17980;51.744;7.190;2022-12-07T08:02:23;20.00;;;13.00;;
27145;SDS011;17980;51.744;7.190;2022-12-07T08:05:00;21.77;;;13.70;;
27145;SDS011;17980;51.744;7.190;2022-12-07T08:07:28;18.60;;;12.87;;
27145;SDS011;17980;51.744;7.190;2022-12-07T08:10:07;16.47;;;12.10;;
27145;SDS011;17980;51.744;7.190;2022-12-07T08:12:37;20.77;;;12.23;;
27145;SDS011;17980;51.744;7.190;2022-12-07T08:15:14;15.27;;;10.97;;
27145;SDS011;17980;51.744;7.190;2022-12-07T08:17:42;20.20;;;11.90;;
27145;SDS011;17980;51.744;7.190;2022-12-07T08:20:09;14.97;;;10.57;;
27145;SDS011;17980;51.744;7.190;2022-12-07T08:22:46;16.03;;;11.00;;
27145;SDS011;17980;51.744;7.190;2022-12-07T08:25:13;20.50;;;12.00;;
27145;SDS011;17980;51.744;7.190;2022-12-07T08:27:51;17.23;;;10.77;;
27145;SDS011;17980;51.744;7.190;2022-12-07T08:30:19;15.77;;;11.03;;
27145;SDS011;17980;51.744;7.190;2022-12-07T08:32:47;14.10;;;10.87;;
27145;SDS011;17980;51.744;7.190;2022-12-07T08:35:24;15.53;;;11.13;;
27145;SDS011;17980;51.744;7.190;2022-12-07T08:37:52;19.17;;;11.17;;
27145;SDS011;17980;51.744;7.190;2022-12-07T08:40:19;15.93;;;10.47;;
27145;SDS011;17980;51.744;7.190;2022-12-07T08:42:49;14.43;;;11.73;;
27145;SDS011;17980;51.744;7.190;2022-12-07T08:45:26;15.13;;;11.13;;
27145;SDS011;17980;51.744;7.190;2022-12-07T08:47:55;21.00;;;10.47;;
27145;SDS011;17980;51.744;7.190;2022-12-07T08:50:33;18.47;;;10.63;;
27145;SDS011;17980;51.744;7.190;2022-12-07T08:53:02;11.07;;;8.80;;
27145;SDS011;17980;51.744;7.190;2022-12-07T08:55:40;11.60;;;7.83;;
27145;SDS011;17980;51.744;7.190;2022-12-07T08:58:07;12.30;;;6.40;;
27145;SDS011;17980;51.744;7.190;2022-12-07T09:00:34;10.97;;;6.60;;
27145;SDS011;17980;51.744;7.190;2022-12-07T09:03:01;15.00;;;6.20;;
27145;SDS011;17980;51.744;7.190;2022-12-07T09:05:38;8.63;;;5.97;;
27145;SDS011;17980;51.744;7.190;2022-12-07T09:08:06;11.07;;;5.63;;
27145;SDS011;17980;51.744;7.190;2022-12-07T09:10:43;7.47;;;6.00;;
27145;SDS011;17980;51.744;7.190;2022-12-07T09:13:11;12.77;;;6.13;;
27145;SDS011;17980;51.744;7.190;2022-12-07T09:15:53;8.07;;;5.33;;
27145;SDS011;17980;51.744;7.190;2022-12-07T09:18:21;6.50;;;5.40;;
27145;SDS011;17980;51.744;7.190;2022-12-07T09:20:50;8.80;;;4.87;;
27145;SDS011;17980;51.744;7.190;2022-12-07T09:23:17;10.17;;;5.13;;
27145;SDS011;17980;51.744;7.190;2022-12-07T09:25:54;11.83;;;5.03;;
27145;SDS011;17980;51.744;7.190;2022-12-07T09:28:23;10.53;;;5.50;;
27145;SDS011;17980;51.744;7.190;2022-12-07T09:30:50;11.80;;;6.40;;
27145;SDS011;17980;51.744;7.190;2022-12-07T09:33:17;10.43;;;5.40;;
27145;SDS011;17980;51.744;7.190;2022-12-07T09:35:54;12.50;;;5.77;;
27145;SDS011;17980;51.744;7.190;2022-12-07T09:38:22;10.23;;;5.93;;
27145;SDS011;17980;51.744;7.190;2022-12-07T09:40:50;13.87;;;6.10;;
27145;SDS011;17980;51.744;7.190;2022-12-07T09:43:18;13.77;;;7.37;;
27145;SDS011;17980;51.744;7.190;2022-12-07T09:45:48;9.87;;;5.87;;
27145;SDS011;17980;51.744;7.190;2022-12-07T09:48:28;8.53;;;5.87;;
27145;SDS011;17980;51.744;7.190;2022-12-07T09:50:57;13.43;;;6.70;;
27145;SDS011;17980;51.744;7.190;2022-12-07T09:53:27;9.27;;;6.10;;
27145;SDS011;17980;51.744;7.190;2022-12-07T09:56:05;10.90;;;5.23;;
27145;SDS011;17980;51.744;7.190;2022-12-07T09:58:32;14.43;;;7.07;;
27145;SDS011;17980;51.744;7.190;2022-12-07T10:01:01;10.93;;;5.53;;
27145;SDS011;17980;51.744;7.190;2022-12-07T10:03:31;11.67;;;5.50;;
27145;SDS011;17980;51.744;7.190;2022-12-07T10:05:58;12.50;;;5.50;;
27145;SDS011;17980;51.744;7.190;2022-12-07T10:08:26;6.90;;;5.10;;
27145;SDS011;17980;51.744;7.190;2022-12-07T10:11:03;9.40;;;3.97;;
27145;SDS011;17980;51.744;7.190;2022-12-07T10:13:36;9.67;;;4.83;;
27145;SDS011;17980;51.744;7.190;2022-12-07T10:19:18;8.97;;;4.43;;
27145;SDS011;17980;51.744;7.190;2022-12-07T10:22:00;11.53;;;4.80;;
27145;SDS011;17980;51.744;7.190;2022-12-07T10:24:39;9.83;;;3.60;;
27145;SDS011;17980;51.744;7.190;2022-12-07T10:27:17;10.90;;;3.40;;
27145;SDS011;17980;51.744;7.190;2022-12-07T10:29:47;8.17;;;4.13;;
27145;SDS011;17980;51.744;7.190;2022-12-07T10:32:26;7.53;;;4.30;;
27145;SDS011;17980;51.744;7.190;2022-12-07T10:35:15;5.70;;;3.73;;
27145;SDS011;17980;51.744;7.190;2022-12-07T10:37:45;9.10;;;3.87;;
27145;SDS011;17980;51.744;7.190;2022-12-07T10:40:24;10.30;;;3.57;;
27145;SDS011;17980;51.744;7.190;2022-12-07T10:43:17;7.93;;;3.60;;
27145;SDS011;17980;51.744;7.190;2022-12-07T10:46:00;6.20;;;3.77;;
27145;SDS011;17980;51.744;7.190;2022-12-07T10:48:47;9.17;;;4.60;;
27145;SDS011;17980;51.744;7.190;2022-12-07T10:51:27;10.17;;;4.00;;
27145;SDS011;17980;51.744;7.190;2022-12-07T10:54:00;14.53;;;3.50;;
27145;SDS011;17980;51.744;7.190;2022-12-07T10:56:42;8.43;;;3.10;;
27145;SDS011;17980;51.744;7.190;2022-12-07T10:59:21;10.00;;;4.27;;
27145;SDS011;17980;51.744;7.190;2022-12-07T11:01:54;7.77;;;3.23;;
27145;SDS011;17980;51.744;7.190;2022-12-07T11:04:28;9.03;;;3.37;;
27145;SDS011;17980;51.744;7.190;2022-12-07T11:07:14;6.60;;;2.90;;
27145;SDS011;17980;51.744;7.190;2022-12-07T11:09:49;6.03;;;1.97;;
27145;SDS011;17980;51.744;7.190;2022-12-07T11:12:23;8.73;;;2.23;;
27145;SDS011;17980;51.744;7.190;2022-12-07T11:15:03;5.53;;;1.83;;
27145;SDS011;17980;51.744;7.190;2022-12-07T11:17:34;8.93;;;1.80;;
27145;SDS011;17980;51.744;7.190;2022-12-07T11:20:14;6.97;;;1.83;;
27145;SDS011;17980;51.744;7.190;2022-12-07T11:22:48;6.47;;;1.80;;
27145;SDS011;17980;51.744;7.190;2022-12-07T11:25:27;8.60;;;2.40;;
27145;SDS011;17980;51.744;7.190;2022-12-07T11:28:02;5.93;;;2.27;;
27145;SDS011;17980;51.744;7.190;2022-12-07T11:30:36;3.33;;;1.53;;
27145;SDS011;17980;51.744;7.190;2022-12-07T11:33:17;9.00;;;2.10;;
27145;SDS011;17980;51.744;7.190;2022-12-07T11:35:50;6.17;;;1.77;;
27145;SDS011;17980;51.744;7.190;2022-12-07T11:38:26;5.33;;;1.93;;
27145;SDS011;17980;51.744;7.190;2022-12-07T11:40:58;5.33;;;1.70;;
27145;SDS011;17980;51.744;7.190;2022-12-07T11:43:30;4.97;;;1.73;;
27145;SDS011;17980;51.744;7.190;2022-12-07T11:46:00;8.83;;;1.33;;
27145;SDS011;17980;51.744;7.190;2022-12-07T11:48:41;6.07;;;2.07;;
27145;SDS011;17980;51.744;7.190;2022-12-07T11:51:11;3.43;;;1.83;;
27145;SDS011;17980;51.744;7.190;2022-12-07T11:53:49;6.33;;;2.13;;
27145;SDS011;17980;51.744;7.190;2022-12-07T11:56:20;7.33;;;3.27;;
27145;SDS011;17980;51.744;7.190;2022-12-07T11:58:49;5.57;;;1.63;;
27145;SDS011;17980;51.744;7.190;2022-12-07T12:01:26;6.27;;;1.53;;
27145;SDS011;17980;51.744;7.190;2022-12-07T12:04:07;4.40;;;1.20;;
27145;SDS011;17980;51.744;7.190;2022-12-07T12:06:42;5.47;;;2.10;;
27145;SDS011;17980;51.744;7.190;2022-12-07T12:09:11;3.93;;;1.43;;
27145;SDS011;17980;51.744;7.190;2022-12-07T12:11:49;6.40;;;2.20;;
27145;SDS011;17980;51.744;7.190;2022-12-07T12:14:28;42.93;;;20.10;;
27145;SDS011;17980;51.744;7.190;2022-12-07T12:17:19;21.07;;;7.37;;
27145;SDS011;17980;51.744;7.190;2022-12-07T12:19:59;13.43;;;4.93;;
27145;SDS011;17980;51.744;7.190;2022-12-07T12:22:33;12.47;;;3.67;;
27145;SDS011;17980;51.744;7.190;2022-12-07T12:25:13;15.77;;;6.27;;
27145;SDS011;17980;51.744;7.190;2022-12-07T12:27:44;17.03;;;6.57;;
27145;SDS011;17980;51.744;7.190;2022-12-07T12:32:54;7.70;;;3.37;;
27145;SDS011;17980;51.744;7.190;2022-12-07T12:35:30;32.07;;;19.57;;
27145;SDS011;17980;51.744;7.190;2022-12-07T12:41:07;9.00;;;5.37;;
27145;SDS011;17980;51.744;7.190;2022-12-07T12:43:48;30.03;;;21.00;;
27145;SDS011;17980;51.744;7.190;2022-12-07T12:49:34;7.10;;;2.60;;
27145;SDS011;17980;51.744;7.190;2022-12-07T12:55:19;6.53;;;1.50;;
27145;SDS011;17980;51.744;7.190;2022-12-07T13:04:01;11.57;;;2.33;;
27145;SDS011;17980;51.744;7.190;2022-12-07T13:06:38;12.57;;;3.53;;
27145;SDS011;17980;51.744;7.190;2022-12-07T13:09:15;5.70;;;1.30;;
27145;SDS011;17980;51.744;7.190;2022-12-07T13:11:58;8.87;;;1.40;;
27145;SDS011;17980;51.744;7.190;2022-12-07T13:14:40;12.93;;;1.53;;
27145;SDS011;17980;51.744;7.190;2022-12-07T13:17:11;10.07;;;1.10;;
27145;SDS011;17980;51.744;7.190;2022-12-07T13:22:38;8.97;;;1.67;;
27145;SDS011;17980;51.744;7.190;2022-12-07T13:25:33;8.93;;;1.57;;
27145;SDS011;17980;51.744;7.190;2022-12-07T13:28:18;4.23;;;1.10;;
27145;SDS011;17980;51.744;7.190;2022-12-07T13:30:49;4.50;;;1.27;;
27145;SDS011;17980;51.744;7.190;2022-12-07T13:33:30;5.33;;;1.60;;
27145;SDS011;17980;51.744;7.190;2022-12-07T13:35:59;4.03;;;1.33;;
27145;SDS011;17980;51.744;7.190;2022-12-07T13:38:28;6.27;;;1.30;;
27145;SDS011;17980;51.744;7.190;2022-12-07T13:43:42;6.87;;;1.20;;
27145;SDS011;17980;51.744;7.190;2022-12-07T13:46:12;6.73;;;1.10;;
27145;SDS011;17980;51.744;7.190;2022-12-07T13:48:43;11.97;;;1.43;;
27145;SDS011;17980;51.744;7.190;2022-12-07T13:51:17;4.60;;;1.00;;
27145;SDS011;17980;51.744;7.190;2022-12-07T13:53:55;3.80;;;1.00;;
27145;SDS011;17980;51.744;7.190;2022-12-07T13:56:27;3.43;;;1.17;;
27145;SDS011;17980;51.744;7.190;2022-12-07T13:58:57;5.23;;;0.90;;
27145;SDS011;17980;51.744;7.190;2022-12-07T14:01:24;2.80;;;1.00;;
27145;SDS011;17980;51.744;7.190;2022-12-07T14:03:52;8.57;;;1.13;;
27145;SDS011;17980;51.744;7.190;2022-12-07T14:06:26;6.10;;;1.00;;
27145;SDS011;17980;51.744;7.190;2022-12-07T14:09:06;6.53;;;1.20;;
27145;SDS011;17980;51.744;7.190;2022-12-07T14:11:44;4.17;;;1.07;;
27145;SDS011;17980;51.744;7.190;2022-12-07T14:14:13;5.07;;;1.00;;
27145;SDS011;17980;51.744;7.190;2022-12-07T14:16:59;5.40;;;1.10;;
27145;SDS011;17980;51.744;7.190;2022-12-07T14:19:48;6.93;;;1.60;;
27145;SDS011;17980;51.744;7.190;2022-12-07T14:22:25;6.97;;;1.20;;
27145;SDS011;17980;51.744;7.190;2022-12-07T14:25:15;10.07;;;1.30;;
27145;SDS011;17980;51.744;7.190;2022-12-07T14:27:48;5.73;;;1.00;;
27145;SDS011;17980;51.744;7.190;2022-12-07T14:30:19;5.53;;;1.20;;
27145;SDS011;17980;51.744;7.190;2022-12-07T14:32:47;8.83;;;1.23;;
27145;SDS011;17980;51.744;7.190;2022-12-07T14:35:24;7.57;;;1.40;;
27145;SDS011;17980;51.744;7.190;2022-12-07T14:37:52;5.83;;;1.40;;
27145;SDS011;17980;51.744;7.190;2022-12-07T14:40:20;7.70;;;1.50;;
27145;SDS011;17980;51.744;7.190;2022-12-07T14:42:49;8.83;;;1.40;;
27145;SDS011;17980;51.744;7.190;2022-12-07T14:45:19;7.40;;;1.57;;
27145;SDS011;17980;51.744;7.190;2022-12-07T14:47:56;9.50;;;1.87;;
27145;SDS011;17980;51.744;7.190;2022-12-07T14:50:23;3.80;;;1.40;;
27145;SDS011;17980;51.744;7.190;2022-12-07T14:53:09;9.27;;;4.40;;
27145;SDS011;17980;51.744;7.190;2022-12-07T14:55:34;7.57;;;2.20;;
27145;SDS011;17980;51.744;7.190;2022-12-07T14:58:02;3.93;;;1.93;;
27145;SDS011;17980;51.744;7.190;2022-12-07T15:00:29;5.17;;;1.70;;
27145;SDS011;17980;51.744;7.190;2022-12-07T15:03:12;9.00;;;1.90;;
27145;SDS011;17980;51.744;7.190;2022-12-07T15:05:40;8.10;;;1.80;;
27145;SDS011;17980;51.744;7.190;2022-12-07T15:08:08;7.20;;;2.40;;
27145;SDS011;17980;51.744;7.190;2022-12-07T15:10:37;9.70;;;2.40;;
27145;SDS011;17980;51.744;7.190;2022-12-07T15:13:05;9.17;;;2.53;;
27145;SDS011;17980;51.744;7.190;2022-12-07T15:15:52;8.57;;;2.73;;
27145;SDS011;17980;51.744;7.190;2022-12-07T15:18:29;14.07;;;3.20;;
27145;SDS011;17980;51.744;7.190;2022-12-07T15:20:56;16.17;;;4.37;;
27145;SDS011;17980;51.744;7.190;2022-12-07T15:23:33;9.57;;;2.40;;
27145;SDS011;17980;51.744;7.190;2022-12-07T15:26:00;7.43;;;2.43;;
27145;SDS011;17980;51.744;7.190;2022-12-07T15:28:27;7.97;;;2.43;;
27145;SDS011;17980;51.744;7.190;2022-12-07T15:30:54;7.50;;;2.70;;
27145;SDS011;17980;51.744;7.190;2022-12-07T15:33:22;8.67;;;2.40;;
27145;SDS011;17980;51.744;7.190;2022-12-07T15:35:49;10.03;;;2.63;;
27145;SDS011;17980;51.744;7.190;2022-12-07T15:38:16;9.33;;;2.30;;
27145;SDS011;17980;51.744;7.190;2022-12-07T15:40:46;11.07;;;2.67;;
27145;SDS011;17980;51.744;7.190;2022-12-07T15:43:14;11.77;;;2.77;;
27145;SDS011;17980;51.744;7.190;2022-12-07T15:46:01;9.30;;;2.57;;
27145;SDS011;17980;51.744;7.190;2022-12-07T15:48:38;8.17;;;2.53;;